Time;durP1;ratioP1;P1;durP2;ratioP2;P2;SDS_P1;SDS_P2;PMS_P1;PMS_P2;Temp;Humidity;BMP_temperature;BMP_pressure;BME280_temperature;BME280_humidity;BME280_pressure;Samples;Min_cycle;Max_cycle;Signal;HPM_P1;HPM_P2
2023/08/02 00:05:14;;;;;;;6.43;3.47;;;15.90;99.90;;;;;;10438392;28;20449;-76
2023/08/02 00:10:37;;;;;;;3.17;2.88;;;15.90;99.90;;;;;;10437067;28;20203;-75
2023/08/02 00:15:58;;;;;;;5.40;3.42;;;16.00;99.90;;;;;;10407183;28;20301;-78
2023/08/02 00:21:20;;;;;;;4.35;3.20;;;15.90;99.90;;;;;;10438022;28;20218;-77
2023/08/02 00:26:41;;;;;;;4.90;3.63;;;15.90;99.90;;;;;;10416101;28;20493;-76
2023/08/02 00:38:01;;;;;;;6.65;3.50;;;15.80;99.90;;;;;;10292021;23;20566;-76
2023/08/02 00:43:23;;;;;;;6.30;3.97;;;15.80;99.90;;;;;;9985335;29;20443;-76
2023/08/02 00:48:46;;;;;;;5.63;3.33;;;15.80;99.90;;;;;;9990346;29;20201;-77
2023/08/02 00:54:07;;;;;;;4.50;3.90;;;15.80;99.90;;;;;;9985020;29;20214;-77
2023/08/02 00:59:28;;;;;;;7.25;4.10;;;15.80;99.90;;;;;;9964983;29;20246;-77
2023/08/02 01:04:50;;;;;;;12.00;4.07;;;15.80;99.90;;;;;;9964934;29;20223;-76
2023/08/02 01:10:29;;;;;;;5.05;4.13;;;15.90;99.90;;;;;;9988871;29;20279;-77
2023/08/02 01:15:50;;;;;;;5.43;3.90;;;15.80;99.90;;;;;;10032843;29;20464;-79
2023/08/02 01:21:12;;;;;;;4.20;3.90;;;15.80;99.90;;;;;;10040916;29;20546;-77
2023/08/02 01:26:37;;;;;;;6.97;4.40;;;15.80;99.90;;;;;;10035285;29;20524;-78
2023/08/02 01:32:00;;;;;;;5.07;4.15;;;15.80;99.90;;;;;;10039807;29;20217;-77
2023/08/02 01:37:21;;;;;;;6.30;4.10;;;15.80;99.90;;;;;;10008340;29;20241;-77
2023/08/02 01:42:43;;;;;;;4.10;3.47;;;15.80;99.90;;;;;;9998927;29;20240;-76
2023/08/02 01:48:04;;;;;;;5.28;3.22;;;15.80;99.90;;;;;;10017555;29;20252;-77
2023/08/02 01:53:25;;;;;;;5.55;2.72;;;15.70;99.90;;;;;;10001803;29;20234;-78
2023/08/02 01:58:47;;;;;;;4.78;3.88;;;15.70;99.90;;;;;;10016296;29;20237;-81
2023/08/02 02:04:09;;;;;;;5.35;3.40;;;15.70;90.80;;;;;;10039339;29;20200;-79
2023/08/02 02:09:31;;;;;;;3.30;2.42;;;15.70;90.50;;;;;;10035645;29;20210;-77
2023/08/02 02:14:53;;;;;;;3.47;2.30;;;15.60;84.10;;;;;;9987105;29;20235;-78
2023/08/02 02:20:15;;;;;;;2.92;2.67;;;15.60;99.90;;;;;;9989958;29;20231;-77
2023/08/02 02:25:36;;;;;;;3.00;2.30;;;15.60;99.90;;;;;;10006892;29;20226;-77
2023/08/02 02:30:58;;;;;;;2.72;2.20;;;15.60;99.50;;;;;;10023565;29;20213;-76
2023/08/02 02:36:19;;;;;;;2.00;1.70;;;15.60;99.90;;;;;;9994031;29;20245;-77
2023/08/02 02:41:43;;;;;;;6.15;2.30;;;15.60;99.90;;;;;;9981864;29;20303;-79
2023/08/02 02:47:05;;;;;;;1.75;1.65;;;15.50;99.90;;;;;;10009426;29;20202;-76
2023/08/02 02:52:28;;;;;;;6.57;2.90;;;15.50;99.90;;;;;;9993718;29;20219;-78
2023/08/02 02:57:50;;;;;;;5.05;2.65;;;15.50;79.10;;;;;;10021862;29;20425;-76
2023/08/02 03:03:12;;;;;;;6.40;1.90;;;15.50;55.70;;;;;;10044456;29;20381;-76
2023/08/02 03:08:33;;;;;;;2.45;1.90;;;15.40;76.80;;;;;;10031538;29;20496;-76
2023/08/02 03:13:54;;;;;;;3.35;2.08;;;15.50;91.30;;;;;;10000549;29;20210;-80
2023/08/02 03:19:16;;;;;;;2.63;2.30;;;15.50;79.50;;;;;;9974608;29;20235;-81
2023/08/02 03:24:37;;;;;;;2.65;2.15;;;15.50;66.90;;;;;;10005028;29;20246;-80
2023/08/02 03:29:58;;;;;;;4.60;2.50;;;15.50;96.10;;;;;;10036624;29;20217;-77
2023/08/02 03:35:19;;;;;;;4.85;2.78;;;15.50;99.90;;;;;;10005550;29;20554;-75
2023/08/02 03:40:43;;;;;;;5.80;2.53;;;15.50;99.90;;;;;;10010327;29;20324;-78
2023/08/02 03:46:04;;;;;;;2.90;2.38;;;15.50;94.40;;;;;;10037304;29;20194;-75
2023/08/02 03:51:27;;;;;;;6.47;2.95;;;15.50;72.10;;;;;;10009148;29;20496;-78
2023/08/02 03:56:48;;;;;;;4.25;2.40;;;15.50;84.90;;;;;;10020659;29;20205;-77
2023/08/02 04:02:09;;;;;;;5.63;2.47;;;15.50;68.10;;;;;;10043357;29;20224;-77
2023/08/02 04:07:30;;;;;;;3.88;2.40;;;15.50;63.10;;;;;;10042079;29;20204;-76
2023/08/02 04:12:51;;;;;;;4.55;3.22;;;15.50;77.90;;;;;;9982775;29;20211;-76
2023/08/02 04:18:13;;;;;;;6.63;2.72;;;15.50;50.30;;;;;;9978323;29;20399;-79
2023/08/02 04:23:34;;;;;;;3.13;2.40;;;15.50;63.00;;;;;;9990258;29;20409;-79
2023/08/02 04:28:55;;;;;;;6.00;3.03;;;15.50;39.70;;;;;;10013067;29;20236;-80
2023/08/02 04:34:16;;;;;;;14.32;4.05;;;15.50;4.70;;;;;;9977910;29;20255;-77
2023/08/02 04:39:37;;;;;;;4.65;2.70;;;15.60;1.00;;;;;;10003454;29;20237;-76
2023/08/02 04:44:58;;;;;;;4.20;2.88;;;15.60;1.00;;;;;;10005383;29;20218;-76
2023/08/02 04:50:20;;;;;;;4.40;3.30;;;15.60;1.00;;;;;;9966316;29;20201;-81
2023/08/02 04:55:44;;;;;;;3.55;2.92;;;15.60;1.00;;;;;;9951989;29;20237;-79
2023/08/02 05:01:05;;;;;;;5.03;3.40;;;15.70;1.00;;;;;;10003769;29;20238;-75
2023/08/02 05:06:26;;;;;;;4.32;3.42;;;15.70;1.00;;;;;;10040044;29;20199;-76
2023/08/02 05:11:47;;;;;;;5.03;3.55;;;15.70;1.00;;;;;;10040707;29;20204;-76
2023/08/02 05:17:09;;;;;;;4.75;3.05;;;15.70;1.00;;;;;;9997914;29;20222;-79
2023/08/02 05:22:31;;;;;;;4.10;3.45;;;15.80;1.00;;;;;;9976789;29;20543;-79
2023/08/02 05:27:52;;;;;;;3.88;2.88;;;15.90;1.00;;;;;;10003098;29;20249;-77
2023/08/02 05:33:13;;;;;;;7.47;3.25;;;16.00;1.00;;;;;;9997450;29;20206;-79
2023/08/02 05:38:34;;;;;;;4.57;2.40;;;16.10;1.00;;;;;;9988254;29;20245;-78
2023/08/02 05:43:56;;;;;;;7.00;3.15;;;16.20;1.00;;;;;;9999105;29;20208;-76
2023/08/02 05:49:17;;;;;;;4.55;2.63;;;16.20;99.90;;;;;;10013551;29;20198;-79
2023/08/02 05:54:38;;;;;;;4.70;2.72;;;16.20;99.90;;;;;;10003082;29;20203;-77
2023/08/02 05:59:59;;;;;;;4.28;2.55;;;16.20;99.90;;;;;;9986729;29;20237;-77
2023/08/02 06:05:20;;;;;;;4.00;2.55;;;16.30;99.90;;;;;;10046250;29;20198;-77
2023/08/02 06:10:42;;;;;;;7.05;3.08;;;16.40;74.50;;;;;;10046791;29;20279;-78
2023/08/02 06:16:04;;;;;;;2.88;2.00;;;16.60;1.00;;;;;;10020340;29;20447;-76
2023/08/02 06:21:25;;;;;;;4.03;2.38;;;16.80;1.00;;;;;;9994325;29;20229;-74
2023/08/02 06:26:47;;;;;;;5.47;2.40;;;16.90;1.00;;;;;;9992650;29;20390;-76
2023/08/02 06:32:08;;;;;;;3.15;2.28;;;16.90;1.00;;;;;;10003982;29;20222;-75
2023/08/02 06:37:29;;;;;;;3.78;1.90;;;17.00;99.90;;;;;;9976038;29;20234;-76
2023/08/02 06:42:50;;;;;;;3.22;1.90;;;16.90;99.90;;;;;;9993673;29;20237;-77
2023/08/02 06:48:11;;;;;;;8.02;1.90;;;17.10;99.90;;;;;;10005424;29;20220;-76
2023/08/02 06:53:33;;;;;;;3.28;1.85;;;17.20;1.00;;;;;;10005876;29;20218;-76
2023/08/02 06:58:54;;;;;;;2.13;1.48;;;17.30;91.90;;;;;;10007222;29;20516;-77
2023/08/02 07:04:15;;;;;;;7.13;1.80;;;17.30;1.00;;;;;;10026512;29;20206;-76
2023/08/02 07:09:36;;;;;;;6.25;2.00;;;17.30;99.90;;;;;;10044571;29;20401;-76
2023/08/02 07:14:57;;;;;;;8.73;1.92;;;17.70;99.90;;;;;;9981002;29;20251;-76
2023/08/02 07:20:19;;;;;;;3.85;1.50;;;17.90;1.00;;;;;;10003916;29;20239;-78
2023/08/02 07:25:40;;;;;;;5.13;2.22;;;18.90;99.90;;;;;;10000161;29;20208;-76
2023/08/02 07:31:12;;;;;;;4.78;2.03;;;19.70;1.00;;;;;;10000025;29;20221;-77
2023/08/02 07:36:33;;;;;;;4.25;2.05;;;19.40;1.00;;;;;;9961789;29;20236;-79
2023/08/02 07:41:55;;;;;;;3.75;2.25;;;18.90;1.00;;;;;;9962819;29;20243;-80
2023/08/02 07:47:16;;;;;;;7.03;2.70;;;18.70;1.00;;;;;;9989407;29;20215;-75
2023/08/02 07:52:37;;;;;;;5.10;2.13;;;18.50;99.90;;;;;;10036791;29;20209;-79
2023/08/02 07:57:58;;;;;;;7.53;2.47;;;18.40;1.00;;;;;;10037296;29;20266;-79
2023/08/02 08:03:19;;;;;;;4.57;2.20;;;18.60;1.00;;;;;;10032980;29;20241;-78
2023/08/02 08:08:42;;;;;;;3.03;1.88;;;18.80;99.90;;;;;;10018348;29;20223;-76
2023/08/02 08:14:03;;;;;;;4.03;2.17;;;19.10;99.90;;;;;;9995722;29;20227;-76
2023/08/02 08:19:28;;;;;;;5.88;1.90;;;19.70;1.00;;;;;;9999338;29;20228;-76
2023/08/02 08:24:49;;;;;;;4.55;2.25;;;21.00;99.90;;;;;;9985631;29;20219;-76
2023/08/02 08:30:10;;;;;;;2.45;1.90;;;21.20;99.90;;;;;;9998697;29;20200;-77
2023/08/02 08:35:35;;;;;;;5.07;3.08;;;20.60;99.90;;;;;;9995050;29;20251;-76
2023/08/02 08:40:56;;;;;;;4.95;1.83;;;20.10;99.90;;;;;;9966929;29;20235;-76
2023/08/02 08:46:19;;;;;;;4.22;1.38;;;21.10;99.90;;;;;;9979191;29;20569;-76
2023/08/02 08:51:45;;;;;;;4.05;1.80;;;21.60;1.00;;;;;;9991676;29;20259;-80
2023/08/02 08:57:08;;;;;;;5.05;1.70;;;21.50;1.00;;;;;;9964930;29;20223;-76
2023/08/02 09:02:31;;;;;;;2.65;1.30;;;22.50;1.00;;;;;;10035980;29;20547;-79
2023/08/02 09:07:59;;;;;;;1.98;1.30;;;23.40;1.00;;;;;;10026965;29;20215;-75
2023/08/02 09:13:27;;;;;;;0.95;0.90;;;24.10;1.00;;;;;;10002680;29;20223;-78
2023/08/02 09:18:49;;;;;;;2.85;1.13;;;24.10;1.00;;;;;;9959066;29;20216;-76
2023/08/02 09:24:10;;;;;;;3.35;1.33;;;23.30;1.00;;;;;;9984241;29;20226;-77
2023/08/02 09:30:01;;;;;;;8.15;1.42;;;22.70;1.00;;;;;;9980509;29;20300;-76
2023/08/02 09:35:22;;;;;;;2.20;1.30;;;22.80;1.00;;;;;;9976962;29;20239;-77
2023/08/02 09:40:47;;;;;;;15.50;10.10;;;22.30;1.00;;;;;;9971864;29;20254;-75
2023/08/02 09:46:29;;;;;;;2.45;1.83;;;21.80;1.00;;;;;;10036727;29;20211;-78
2023/08/02 09:51:50;;;;;;;2.08;1.17;;;21.40;1.00;;;;;;9978534;29;20244;-76
2023/08/02 09:57:12;;;;;;;4.03;1.13;;;21.60;1.00;;;;;;9977930;29;20195;-77
2023/08/02 10:02:35;;;;;;;1.25;0.85;;;22.00;1.00;;;;;;10038854;29;20227;-76
2023/08/02 10:07:57;;;;;;;2.40;0.95;;;21.80;1.00;;;;;;10023207;29;20208;-78
2023/08/02 10:13:23;;;;;;;2.33;1.05;;;21.40;1.00;;;;;;10002779;29;20231;-79
2023/08/02 10:18:46;;;;;;;2.22;1.27;;;22.10;1.00;;;;;;10004715;29;20218;-77
2023/08/02 10:24:09;;;;;;;4.40;1.20;;;22.90;1.00;;;;;;9993419;29;20217;-76
2023/08/02 10:29:33;;;;;;;3.80;0.90;;;23.70;1.00;;;;;;10002949;29;20208;-76
2023/08/02 10:34:54;;;;;;;3.17;1.35;;;23.90;1.00;;;;;;10001639;29;20432;-76
2023/08/02 10:40:15;;;;;;;2.70;1.45;;;23.20;1.00;;;;;;10000628;29;20279;-77
2023/08/02 10:45:36;;;;;;;2.05;1.20;;;22.90;1.00;;;;;;10004410;29;20232;-78
2023/08/02 10:50:58;;;;;;;1.70;1.13;;;22.90;1.00;;;;;;10018483;29;20246;-76
2023/08/02 10:56:20;;;;;;;3.00;1.40;;;22.60;1.00;;;;;;9963821;29;20196;-78
2023/08/02 11:02:13;;;;;;;4.05;0.82;;;22.50;1.00;;;;;;9964833;29;20489;-75
2023/08/02 11:07:35;;;;;;;5.72;1.15;;;22.60;1.00;;;;;;10088842;29;20226;-78
2023/08/02 11:12:57;;;;;;;1.67;0.88;;;23.20;1.00;;;;;;10076670;29;20289;-78
2023/08/02 11:18:18;;;;;;;1.17;0.80;;;22.90;1.00;;;;;;10042889;29;20303;-76
2023/08/02 11:24:00;;;;;;;4.15;1.13;;;22.40;1.00;;;;;;10071553;29;20254;-76
2023/08/02 11:29:22;;;;;;;0.75;0.65;;;21.90;1.00;;;;;;10068140;29;20230;-78
2023/08/02 11:34:43;;;;;;;4.70;1.33;;;22.80;1.00;;;;;;10054214;29;20264;-77
2023/08/02 11:40:04;;;;;;;1.77;1.15;;;23.20;1.00;;;;;;10038883;29;20309;-78
2023/08/02 11:45:30;;;;;;;2.28;0.90;;;23.10;1.00;;;;;;9990761;29;20202;-78
2023/08/02 11:50:53;;;;;;;1.15;0.70;;;22.80;1.00;;;;;;10004391;29;20212;-78
2023/08/02 11:56:15;;;;;;;2.05;0.80;;;22.90;1.00;;;;;;9988886;29;20241;-76
2023/08/02 12:01:41;;;;;;;8.90;5.13;;;22.80;1.00;;;;;;10004640;29;20231;-79
2023/08/02 12:07:02;;;;;;;9.43;7.32;;;23.40;1.00;;;;;;9999859;29;20207;-80
2023/08/02 12:12:31;;;;;;;1.77;0.93;;;24.10;1.00;;;;;;9970830;29;20536;-80
2023/08/02 12:18:06;;;;;;;1.65;0.63;;;24.40;1.00;;;;;;10007504;29;20219;-79
2023/08/02 12:23:34;;;;;;;1.27;0.80;;;24.20;1.00;;;;;;10000196;29;20497;-81
2023/08/02 12:28:55;;;;;;;1.58;0.80;;;24.00;1.00;;;;;;9996908;29;20220;-80
2023/08/02 12:34:16;;;;;;;1.17;1.00;;;23.40;1.00;;;;;;9999426;29;20254;-78
2023/08/02 12:39:38;;;;;;;2.17;1.38;;;23.20;1.00;;;;;;9991563;29;20200;-82
2023/08/02 12:44:59;;;;;;;1.58;1.05;;;23.80;1.00;;;;;;9978624;29;20391;-80
2023/08/02 12:50:28;;;;;;;2.20;1.20;;;24.30;1.00;;;;;;9984491;29;20211;-77
2023/08/02 12:55:50;;;;;;;1.58;0.80;;;23.90;1.00;;;;;;9995204;29;20224;-76
2023/08/02 13:01:14;;;;;;;2.50;1.10;;;23.40;1.00;;;;;;9999062;29;20231;-81
2023/08/02 13:06:35;;;;;;;3.50;1.02;;;24.10;1.00;;;;;;9985875;29;20490;-77
2023/08/02 13:11:56;;;;;;;1.35;1.00;;;23.90;1.00;;;;;;9982694;29;20238;-76
2023/08/02 13:17:26;;;;;;;3.17;1.33;;;23.40;1.00;;;;;;9984178;29;20215;-76
2023/08/02 13:22:47;;;;;;;2.33;1.25;;;23.10;1.00;;;;;;10000459;29;20247;-78
2023/08/02 13:28:08;;;;;;;2.05;1.20;;;23.00;1.00;;;;;;9971548;29;20204;-76
2023/08/02 13:33:30;;;;;;;2.67;1.50;;;23.00;1.00;;;;;;9988801;29;20211;-78
2023/08/02 13:38:51;;;;;;;2.53;1.00;;;23.20;1.00;;;;;;10026926;29;20215;-78
2023/08/02 13:44:16;;;;;;;3.65;1.52;;;23.30;1.00;;;;;;10011148;29;20246;-78
2023/08/02 13:49:37;;;;;;;4.68;1.50;;;23.30;1.00;;;;;;10012204;29;20216;-77
2023/08/02 13:54:58;;;;;;;8.60;1.73;;;23.10;1.00;;;;;;9993900;29;20285;-77
2023/08/02 14:00:19;;;;;;;3.67;2.05;;;22.70;1.00;;;;;;9959597;29;20225;-78
2023/08/02 14:05:40;;;;;;;2.17;1.50;;;22.50;1.00;;;;;;9969820;29;20215;-76
2023/08/02 14:11:01;;;;;;;3.75;1.85;;;22.20;1.00;;;;;;9987278;29;20303;-78
2023/08/02 14:16:22;;;;;;;5.88;1.90;;;22.80;1.00;;;;;;10021919;29;20395;-76
2023/08/02 14:21:43;;;;;;;3.38;1.70;;;23.00;1.00;;;;;;10019171;29;20234;-81
2023/08/02 14:27:07;;;;;;;3.50;1.58;;;23.10;1.00;;;;;;10018744;29;20258;-80
2023/08/02 14:32:28;;;;;;;2.50;1.20;;;23.20;1.00;;;;;;10027175;29;20253;-81
2023/08/02 14:37:50;;;;;;;5.75;2.53;;;23.00;1.00;;;;;;10012921;29;20235;-81
2023/08/02 14:43:11;;;;;;;1.70;1.15;;;22.80;1.00;;;;;;10018369;29;20537;-79
2023/08/02 14:48:44;;;;;;;1.33;1.10;;;22.90;1.00;;;;;;10014665;29;20527;-77
2023/08/02 14:54:05;;;;;;;4.28;1.55;;;22.70;1.00;;;;;;10014099;29;20222;-80
2023/08/02 14:59:32;;;;;;;4.80;1.98;;;22.60;1.00;;;;;;9986105;29;20529;-76
2023/08/02 15:04:54;;;;;;;3.33;1.15;;;22.40;1.00;;;;;;9991288;29;20276;-80
2023/08/02 15:10:16;;;;;;;3.75;1.83;;;22.20;1.00;;;;;;10042914;29;20199;-77
2023/08/02 15:15:37;;;;;;;3.58;1.63;;;22.30;1.00;;;;;;10018701;29;20460;-77
2023/08/02 15:20:58;;;;;;;2.20;1.55;;;22.10;1.00;;;;;;10001745;29;20438;-77
2023/08/02 15:26:25;;;;;;;6.68;1.95;;;22.20;1.00;;;;;;10004263;29;20195;-78
2023/08/02 15:31:46;;;;;;;2.80;1.52;;;22.50;1.00;;;;;;10022747;29;20516;-77
2023/08/02 15:37:07;;;;;;;6.32;1.60;;;22.30;1.00;;;;;;10042718;29;20271;-78
2023/08/02 15:42:29;;;;;;;4.38;1.60;;;22.20;1.00;;;;;;10043323;29;20237;-77
2023/08/02 15:47:50;;;;;;;1.85;1.42;;;22.30;1.00;;;;;;9972257;29;20213;-77
2023/08/02 15:53:11;;;;;;;2.25;1.50;;;22.20;1.00;;;;;;9988847;29;20235;-76
2023/08/02 15:58:33;;;;;;;7.28;1.75;;;22.00;1.00;;;;;;10004412;29;20495;-78
2023/08/02 16:03:54;;;;;;;3.53;1.70;;;21.90;1.00;;;;;;9981821;29;20244;-77
2023/08/02 16:09:15;;;;;;;3.47;1.90;;;21.90;1.00;;;;;;9968149;29;20235;-80
2023/08/02 16:14:37;;;;;;;2.83;2.45;;;21.80;1.00;;;;;;9980932;29;20282;-77
2023/08/02 16:19:58;;;;;;;6.30;2.20;;;21.70;1.00;;;;;;9979274;29;20212;-77
2023/08/02 16:25:21;;;;;;;3.92;1.40;;;21.60;1.00;;;;;;9967236;29;20200;-80
2023/08/02 16:30:42;;;;;;;4.90;2.20;;;21.60;1.00;;;;;;10009599;29;20569;-76
2023/08/02 16:36:04;;;;;;;5.22;2.45;;;21.80;1.00;;;;;;10042365;29;20251;-77
2023/08/02 16:41:25;;;;;;;3.35;1.67;;;21.90;1.00;;;;;;10041916;29;20225;-76
2023/08/02 16:46:46;;;;;;;3.53;2.10;;;21.90;1.00;;;;;;10009785;29;20230;-77
2023/08/02 16:52:07;;;;;;;6.68;2.15;;;21.80;1.00;;;;;;10004310;29;20403;-77
2023/08/02 16:57:29;;;;;;;3.25;2.28;;;21.60;1.00;;;;;;10003598;29;20234;-78
2023/08/02 17:02:50;;;;;;;5.63;2.30;;;21.50;1.00;;;;;;9968487;29;20256;-77
2023/08/02 17:08:12;;;;;;;4.80;2.72;;;21.40;1.00;;;;;;9964904;29;20204;-77
2023/08/02 17:13:33;;;;;;;2.90;2.05;;;21.40;1.00;;;;;;9965786;29;20200;-76
2023/08/02 17:18:54;;;;;;;4.40;2.70;;;21.30;1.00;;;;;;9972046;29;20202;-79
2023/08/02 17:24:15;;;;;;;3.35;2.28;;;21.20;1.00;;;;;;9965685;29;20228;-77
2023/08/02 17:29:36;;;;;;;3.97;2.50;;;21.00;1.00;;;;;;9964418;29;20208;-77
2023/08/02 17:34:57;;;;;;;3.08;1.92;;;21.00;1.00;;;;;;10020312;29;20242;-76
2023/08/02 17:40:18;;;;;;;3.85;1.90;;;20.80;1.00;;;;;;10040724;29;20229;-76
2023/08/02 17:45:40;;;;;;;3.33;2.08;;;20.80;6.60;;;;;;10023966;29;20212;-77
2023/08/02 17:51:00;;;;;;;3.80;2.10;;;20.70;66.70;;;;;;9973373;29;20234;-81
2023/08/02 17:56:21;;;;;;;4.63;2.58;;;20.60;99.90;;;;;;9996256;29;20547;-77
2023/08/02 18:01:45;;;;;;;3.17;2.30;;;20.60;99.90;;;;;;9991238;29;20541;-76
2023/08/02 18:07:06;;;;;;;7.30;2.40;;;20.50;99.90;;;;;;9972328;29;20197;-76
2023/08/02 18:12:27;;;;;;;3.65;2.60;;;20.40;99.90;;;;;;9971750;29;20201;-77
2023/08/02 18:17:48;;;;;;;5.70;2.65;;;20.40;99.90;;;;;;9974725;29;20406;-79
2023/08/02 18:23:11;;;;;;;8.35;2.38;;;20.30;1.00;;;;;;9971971;29;20242;-76
2023/08/02 18:28:32;;;;;;;3.65;2.55;;;20.20;1.00;;;;;;9970762;29;20275;-76
2023/08/02 18:33:53;;;;;;;4.78;2.65;;;20.10;1.00;;;;;;10028186;29;20207;-77
2023/08/02 18:39:15;;;;;;;4.68;2.20;;;20.00;1.00;;;;;;10042494;29;20211;-77
2023/08/02 18:44:36;;;;;;;4.45;2.75;;;19.90;1.00;;;;;;10037038;29;20239;-78
2023/08/02 18:49:57;;;;;;;4.47;2.53;;;19.80;1.00;;;;;;9995430;29;20204;-77
2023/08/02 18:55:18;;;;;;;7.57;2.80;;;19.80;1.00;;;;;;10006472;29;20397;-77
2023/08/02 19:00:41;;;;;;;4.45;2.58;;;19.70;1.00;;;;;;9984148;29;20231;-78
2023/08/02 19:06:02;;;;;;;4.82;2.63;;;19.60;1.00;;;;;;9969118;29;20261;-77
2023/08/02 19:11:24;;;;;;;5.07;2.70;;;19.60;1.00;;;;;;9972231;29;20287;-77
2023/08/02 19:16:46;;;;;;;7.10;3.78;;;19.60;1.00;;;;;;9969892;29;20385;-77
2023/08/02 19:22:13;;;;;;;6.45;4.32;;;19.50;1.00;;;;;;9969457;29;20451;-77
2023/08/02 19:27:36;;;;;;;6.28;3.00;;;19.50;1.00;;;;;;10037029;29;20245;-78
2023/08/02 19:32:58;;;;;;;4.95;2.55;;;19.50;1.00;;;;;;10044958;29;20489;-78
2023/08/02 19:38:22;;;;;;;3.35;2.30;;;19.40;1.00;;;;;;10038805;29;20255;-76
2023/08/02 19:43:46;;;;;;;4.75;2.63;;;19.30;1.00;;;;;;10002559;29;20299;-78
2023/08/02 19:49:08;;;;;;;4.32;2.50;;;19.40;1.00;;;;;;10006439;29;20195;-77
2023/08/02 19:54:29;;;;;;;3.42;2.25;;;19.30;1.00;;;;;;10005721;29;20227;-76
2023/08/02 19:59:50;;;;;;;4.78;2.70;;;19.30;39.70;;;;;;9982942;29;20204;-78
2023/08/02 20:05:17;;;;;;;4.93;2.78;;;19.30;1.00;;;;;;9971274;29;20256;-76
2023/08/02 20:10:51;;;;;;;7.07;3.13;;;19.30;66.80;;;;;;9970058;29;20200;-77
2023/08/02 20:16:13;;;;;;;7.05;3.47;;;19.30;42.20;;;;;;9967320;29;20197;-77
2023/08/02 20:21:35;;;;;;;3.40;2.90;;;19.20;71.60;;;;;;9971023;29;20238;-76
2023/08/02 20:26:56;;;;;;;4.10;2.95;;;19.20;99.90;;;;;;9966679;29;20544;-80
2023/08/02 20:32:18;;;;;;;5.63;3.45;;;19.20;94.20;;;;;;9997668;29;20500;-77
2023/08/02 20:37:41;;;;;;;9.50;2.65;;;19.20;91.90;;;;;;10042614;29;20258;-75
2023/08/02 20:43:09;;;;;;;5.85;2.63;;;19.20;60.00;;;;;;10022467;29;20229;-79
2023/08/02 20:48:31;;;;;;;4.32;2.67;;;19.20;1.00;;;;;;9979514;29;20197;-78
2023/08/02 20:53:52;;;;;;;5.47;2.80;;;19.20;1.00;;;;;;9969550;29;20215;-76
2023/08/02 20:59:17;;;;;;;3.58;2.78;;;19.20;1.00;;;;;;9966996;29;20196;-77
2023/08/02 21:04:38;;;;;;;2.70;2.10;;;19.20;1.00;;;;;;9971626;29;20228;-77
2023/08/02 21:09:59;;;;;;;4.18;2.05;;;19.20;1.00;;;;;;9966470;29;20196;-77
2023/08/02 21:15:20;;;;;;;2.65;1.88;;;19.20;1.00;;;;;;9966336;29;20287;-77
2023/08/02 21:20:43;;;;;;;2.38;2.00;;;19.20;1.00;;;;;;9969623;29;20419;-77
2023/08/02 21:26:04;;;;;;;2.05;1.70;;;19.30;1.00;;;;;;9952404;29;20212;-78
2023/08/02 21:31:28;;;;;;;2.17;1.92;;;19.30;1.00;;;;;;9981536;29;20214;-75
2023/08/02 21:36:55;;;;;;;3.05;1.75;;;19.40;99.90;;;;;;10041273;29;20465;-80
2023/08/02 21:42:23;;;;;;;2.70;1.80;;;19.40;99.90;;;;;;10014534;29;20242;-77
2023/08/02 21:47:45;;;;;;;5.07;2.28;;;19.50;99.90;;;;;;9977618;29;20518;-75
2023/08/02 21:53:09;;;;;;;2.08;1.58;;;19.50;99.90;;;;;;9984501;29;20558;-76
2023/08/02 21:58:34;;;;;;;4.30;2.28;;;19.50;99.90;;;;;;9982931;29;20533;-76
2023/08/02 22:03:58;;;;;;;4.80;2.13;;;19.50;99.90;;;;;;9997489;29;20257;-76
2023/08/02 22:09:19;;;;;;;3.03;2.00;;;19.50;99.90;;;;;;9976941;29;20202;-79
2023/08/02 22:14:40;;;;;;;2.80;1.73;;;19.40;99.90;;;;;;9993859;29;20213;-77
2023/08/02 22:20:01;;;;;;;5.93;2.17;;;19.30;99.90;;;;;;9963784;29;20491;-76
2023/08/02 22:25:23;;;;;;;5.38;2.00;;;19.20;99.90;;;;;;9987675;29;20299;-76
2023/08/02 22:30:44;;;;;;;6.78;2.25;;;19.20;99.90;;;;;;10001115;29;20248;-77
2023/08/02 22:36:05;;;;;;;6.45;2.35;;;19.10;99.90;;;;;;9999491;29;20270;-78
2023/08/02 22:41:27;;;;;;;5.22;2.05;;;19.10;99.90;;;;;;10007668;29;20238;-78
2023/08/02 22:46:48;;;;;;;4.85;2.40;;;19.10;99.90;;;;;;10011250;29;20214;-78
2023/08/02 22:52:09;;;;;;;6.25;2.47;;;19.10;99.90;;;;;;9980904;29;20211;-79
2023/08/02 22:57:33;;;;;;;7.22;2.10;;;19.00;99.90;;;;;;9994133;29;20204;-77
2023/08/02 23:02:54;;;;;;;3.78;2.00;;;18.90;99.90;;;;;;10025745;29;20234;-77
2023/08/02 23:08:18;;;;;;;3.95;2.20;;;18.90;1.00;;;;;;9970009;29;20291;-78
2023/08/02 23:13:45;;;;;;;3.47;2.05;;;18.80;1.00;;;;;;9972917;29;20260;-78
2023/08/02 23:19:15;;;;;;;2.95;2.03;;;18.80;1.00;;;;;;9969902;29;20211;-76
2023/08/02 23:24:36;;;;;;;4.25;1.88;;;18.70;1.00;;;;;;9983383;29;20283;-76
2023/08/02 23:30:02;;;;;;;3.67;2.22;;;18.70;1.00;;;;;;10022169;29;20288;-76
2023/08/02 23:35:23;;;;;;;4.03;2.30;;;18.70;1.00;;;;;;10023003;29;20247;-79
2023/08/02 23:40:44;;;;;;;4.28;1.77;;;18.60;1.00;;;;;;10042581;29;20399;-78
2023/08/02 23:46:05;;;;;;;4.40;2.08;;;18.60;1.00;;;;;;10017823;29;20394;-76
2023/08/02 23:51:26;;;;;;;2.75;1.90;;;18.70;1.00;;;;;;10005178;29;20204;-76
2023/08/02 23:56:48;;;;;;;3.10;2.03;;;18.80;1.00;;;;;;9977849;29;20271;-78
